Terminal Aerodrome Forecast
Issued by NWS Cleveland, OH

Home | Current Version | Previous Version | Graphics & Text | Print | Product List | Glossary On
Versions: 1 2 3 4 5 6 7 8 9 10 11 12 13 14 15 16 17 18 19 20 21 22
975
FTUS41 KCLE 300520
TAFMFD
TAF
KMFD 300520Z 3006/0106 17010KT P6SM SCT025 OVC035
      TEMPO 3009/3013 5SM -SHRA BR OVC020
     FM301300 17010KT 6SM -SHRA BKN012
     FM301600 18010KT P6SM VCSH BKN015
     FM302100 22012KT 6SM -SHRA SCT015 OVC025
      TEMPO 3021/3023 5SM -RA OVC015
     FM010000 24012KT P6SM BKN025=

USA.gov is the U.S. government's official web portal to all federal, state and local government web resources and services.